Aspers, Pennsylvania
Current Conditions -  °F | °C
As of 9:53 AM on Friday 24 Oct 2014 (Local Time) from KTHV Reporting Station
Clear Clear  
Wind Chill: 58°   Ceiling: Unl
Heat Index: 58°   Visibility: 10mi
Dew Point: 41°   Wind: 12mph
Humidity: 53%   Direction: 340°NNW
Pressure: 29.95"   Gusts: 21mph
Location:  39.98°N, 77.22°W
Report Text: KTHV 241353Z AUTO 34010G18KT 10SM CLR 14/05 A2995 RMK AO2 SLP143 T01440050
Loading
Personal Weather Stations






























Interactive Weather Map
Tropical Storm Tracking
New forecast layout! Learn more

10-Day Weather Forecast

Advertisements
Track Severe Weather on mobile